Weather at Sasso d'Oro Agrotourism Airfield

Public forecast

Using degrees Celsius for public forecast. Weather courtesy of forecast.io.

Closest aviation weather report (METAR) to Sasso d'Oro Agrotourism Airfield

Report is more than 6 hours old.

Closest report is Aviano Air Base, 13.0 nm (24.1 km) SW.

2024/05/18 17:55 (retrieved 15 hours ago)

LIPA 181755Z 02005KT 9999 FEW060 19/13 Q1012 RMK FEW VIS MIN 9999 WIND THR05/////KT WIND THR23 /////KT A2990 BLU

Closest aviation forecast (TAF) to Sasso d'Oro Agrotourism Airfield

Closest forecast is Trieste–Friuli Venezia Giulia Airport, 34.4 nm (63.8 km) SE.

2024/05/19 06:26 (retrieved 3 hours ago)

TAF LIPQ 190500Z 1906/2006 VRB05KT 9999 FEW030 BECMG 1910/1912 20010KT BECMG 1916/1918 VRB05KT TEMPO 1922/2004 1200 BCFG BKN003